Pagina principală
METAR-TAF:

METAR-TAF

Aeroporturi :

Philip Billard Municipal Airport

Topeka, Kansas, Statele Unite ale Americii

Latitudine: 39-04-21N, longitudine: 095-37-33W, elevație: 268 m

Observații meteo curente

Raportul a fost făcut în urmă cu 1 oră și 6 de minute, la 15:53 UTC
Vânt 3 kt de la Est/Sud-est
Temperatură 25°C
Umiditate 41%
Presiune 1021 hPa
Vizibilitate: 16.1 km
Nori puțini la o înălțime de 12000 picior

METAR: KTOP 281553Z 12003KT 10SM FEW120 25/11 A3016 RMK AO2 SLP205 T02500106

Ora: 11:59 (16:59 UTC)

Prognoză

Raportul a fost făcut în urmă cu 4 ore și 0 de minute, la 12:59 UTC
Prognoză valabilă de la 28 ora 13 UTC la 29 ora 12 UTC
Vânt 5 kt de la Nord/Nord-vest
Vizibilitate: 10 km
Nori împrăștiați la o înălțime de 15000 picior

TAF: KTOP 281259Z 2813/2912 33005KT P6SM SCT150

Observații și prognoze meteo pentru peste 4.000 de aeroporturi (rapoarte METAR și TAF).

Stațiile disponibile sunt reprezentate pe hartă prin puncte galbene și roșii.

Țineți indicatorul mouse-ului pe punctul dorit pentru a vedea denumirea stației.

Apoi, faceți clic pentru a vedea observațiile și prognozele meteorologice.

Pentru a schimba harta: Pentru mărire, faceți clic pe butoanele verzi cu cruce neagră; pentru micșorare, pe butonul verde cu o liniuță; pentru hărți învecinate, pe săgețile verzi.


METAR-TAF: